createdAt,value
2018-05-06T00:00:56.179Z,12.80
2018-05-06T00:03:24.368Z,12.70
2018-05-06T00:05:51.933Z,12.70
2018-05-06T00:08:19.558Z,12.60
2018-05-06T00:10:47.127Z,12.70
2018-05-06T00:13:14.804Z,12.70
2018-05-06T00:15:42.401Z,12.80
2018-05-06T00:18:10.832Z,12.70
2018-05-06T00:20:38.429Z,12.70
2018-05-06T00:23:06.049Z,12.70
2018-05-06T00:25:33.620Z,12.70
2018-05-06T00:28:01.197Z,12.70
2018-05-06T00:30:28.770Z,12.70
2018-05-06T00:32:56.407Z,12.70
2018-05-06T00:35:23.974Z,12.70
2018-05-06T00:37:51.622Z,12.70
2018-05-06T00:40:19.262Z,12.70
2018-05-06T00:42:46.851Z,12.60
2018-05-06T00:45:14.459Z,12.60
2018-05-06T00:47:42.875Z,12.60
2018-05-06T00:50:10.520Z,12.60
2018-05-06T00:52:38.106Z,12.60
2018-05-06T00:55:05.671Z,12.60
2018-05-06T00:57:33.306Z,12.60
2018-05-06T01:00:00.944Z,12.50
2018-05-06T01:02:29.358Z,12.60
2018-05-06T01:04:56.964Z,12.60
2018-05-06T01:07:24.571Z,12.60
2018-05-06T01:09:52.143Z,12.50
2018-05-06T01:12:19.812Z,12.50
2018-05-06T01:14:47.450Z,12.40
2018-05-06T01:17:34.014Z,12.30
2018-05-06T01:20:01.654Z,12.30
2018-05-06T01:22:29.306Z,12.30
2018-05-06T01:24:56.933Z,12.30
2018-05-06T01:27:24.508Z,12.20
2018-05-06T01:29:52.086Z,12.20
2018-05-06T01:32:19.673Z,12.10
2018-05-06T01:34:47.267Z,12.00
2018-05-06T01:37:14.889Z,12.00
2018-05-06T01:39:42.471Z,12.00
2018-05-06T01:42:10.837Z,12.00
2018-05-06T01:44:38.421Z,12.00
2018-05-06T01:47:05.997Z,12.00
2018-05-06T01:49:33.596Z,12.00
2018-05-06T01:52:01.195Z,11.90
2018-05-06T01:54:29.627Z,11.70
2018-05-06T01:56:57.188Z,11.70
2018-05-06T01:59:24.802Z,11.60
2018-05-06T02:01:53.145Z,11.50
2018-05-06T02:04:20.737Z,11.50
2018-05-06T02:06:49.127Z,11.40
2018-05-06T02:09:16.722Z,11.40
2018-05-06T02:11:44.366Z,11.50
2018-05-06T02:14:11.961Z,11.50
2018-05-06T02:16:39.562Z,11.40
2018-05-06T02:19:07.141Z,11.40
2018-05-06T02:21:34.769Z,11.30
2018-05-06T02:24:03.142Z,11.30
2018-05-06T02:26:30.770Z,11.30
2018-05-06T02:28:58.395Z,11.30
2018-05-06T02:31:25.941Z,11.30
2018-05-06T02:33:53.551Z,11.20
2018-05-06T02:36:21.121Z,11.30
2018-05-06T02:38:48.773Z,11.40
2018-05-06T02:41:16.367Z,11.30
2018-05-06T02:43:44.714Z,11.20
2018-05-06T02:46:12.350Z,11.20
2018-05-06T02:48:39.989Z,11.10
2018-05-06T02:51:07.550Z,11.10
2018-05-06T02:53:35.149Z,11.00
2018-05-06T02:56:02.722Z,10.90
2018-05-06T02:58:30.289Z,10.90
2018-05-06T03:00:57.890Z,10.90
2018-05-06T03:03:25.450Z,10.90
2018-05-06T03:05:53.036Z,10.90
2018-05-06T03:08:20.669Z,10.90
2018-05-06T03:10:48.269Z,10.80
2018-05-06T03:13:15.862Z,10.80
2018-05-06T03:15:44.229Z,10.80
2018-05-06T03:18:11.839Z,10.70
2018-05-06T03:20:39.397Z,10.70
2018-05-06T03:23:07.014Z,10.70
2018-05-06T03:25:34.646Z,10.70
2018-05-06T03:28:02.264Z,10.60
2018-05-06T03:30:30.602Z,10.60
2018-05-06T03:32:58.233Z,10.50
2018-05-06T03:35:25.856Z,10.50
2018-05-06T03:37:54.294Z,10.40
2018-05-06T03:40:21.907Z,10.40
2018-05-06T03:42:49.517Z,10.40
2018-05-06T03:45:17.061Z,10.40
2018-05-06T03:47:44.667Z,10.40
2018-05-06T03:50:13.862Z,10.30
2018-05-06T03:52:41.489Z,10.30
2018-05-06T03:55:09.113Z,10.40
2018-05-06T03:57:48.355Z,10.40
2018-05-06T04:00:27.833Z,10.30
2018-05-06T04:02:55.721Z,10.40
2018-05-06T04:05:23.297Z,10.30
2018-05-06T04:07:51.725Z,10.40
2018-05-06T04:10:19.354Z,10.30
2018-05-06T04:12:46.958Z,10.40
2018-05-06T04:15:14.523Z,10.40
2018-05-06T04:17:42.114Z,10.40
2018-05-06T04:20:10.481Z,10.40
2018-05-06T04:22:38.874Z,10.50
2018-05-06T04:25:07.197Z,10.60
2018-05-06T04:27:34.856Z,10.60
2018-05-06T04:30:02.442Z,10.80
2018-05-06T04:32:30.034Z,10.90
2018-05-06T04:34:58.433Z,11.10
2018-05-06T04:40:31.057Z,11.30
2018-05-06T04:42:58.644Z,11.30
2018-05-06T04:45:26.238Z,11.40
2018-05-06T04:47:53.803Z,11.50
2018-05-06T04:50:21.415Z,11.60
2018-05-06T04:52:49.069Z,11.70
2018-05-06T04:55:16.713Z,11.80
2018-05-06T04:57:44.306Z,11.90
2018-05-06T05:00:11.881Z,12.10
2018-05-06T05:02:40.249Z,12.20
2018-05-06T05:05:08.589Z,12.40
2018-05-06T05:07:36.202Z,12.40
2018-05-06T05:16:03.749Z,12.50
2018-05-06T05:18:31.328Z,12.60
2018-05-06T05:32:38.058Z,13.20
2018-05-06T05:35:05.647Z,13.20
2018-05-06T05:37:33.259Z,13.30
2018-05-06T05:40:00.887Z,13.30
2018-05-06T05:42:29.264Z,13.50
2018-05-06T05:48:07.505Z,13.50
2018-05-06T05:53:49.707Z,13.50
2018-05-06T05:56:17.345Z,13.50
2018-05-06T05:58:50.446Z,13.70
2018-05-06T06:07:17.462Z,14.00
2018-05-06T06:09:45.819Z,14.10
2018-05-06T06:12:13.403Z,14.10
2018-05-06T06:14:41.752Z,14.30
2018-05-06T06:17:28.088Z,14.30
2018-05-06T06:19:55.717Z,14.40
2018-05-06T06:22:23.297Z,14.50
2018-05-06T06:24:51.696Z,14.60
2018-05-06T06:27:19.335Z,14.60
2018-05-06T06:50:10.844Z,15.60
2018-05-06T06:52:38.418Z,15.60
2018-05-06T06:55:05.989Z,15.70
2018-05-06T06:57:33.671Z,15.80
2018-05-06T07:00:02.054Z,16.10
2018-05-06T07:02:30.385Z,16.30
2018-05-06T07:04:58.079Z,16.30
2018-05-06T07:07:25.664Z,16.40
2018-05-06T07:09:53.305Z,16.50
2018-05-06T07:12:21.649Z,16.70
2018-05-06T07:14:49.220Z,16.70
2018-05-06T07:17:16.791Z,16.80
2018-05-06T07:19:44.374Z,16.90
2018-05-06T07:22:11.994Z,17.00
2018-05-06T07:24:39.606Z,17.10
2018-05-06T07:27:07.217Z,17.10
2018-05-06T07:29:34.772Z,17.30
2018-05-06T07:32:02.366Z,17.40
2018-05-06T07:37:43.771Z,17.40
2018-05-06T07:40:12.092Z,17.70
2018-05-06T07:42:39.756Z,17.60
2018-05-06T07:45:07.359Z,17.70
2018-05-06T07:47:34.981Z,17.90
2018-05-06T07:50:02.538Z,18.00
2018-05-06T07:52:30.149Z,18.10
2018-05-06T07:54:58.488Z,18.70
2018-05-06T07:57:26.055Z,18.80
2018-05-06T07:59:53.629Z,19.00
2018-05-06T08:02:21.200Z,19.30
2018-05-06T08:04:49.609Z,19.60
2018-05-06T08:07:17.259Z,19.60
2018-05-06T08:09:45.577Z,19.90
2018-05-06T08:12:13.218Z,19.90
2018-05-06T08:14:40.779Z,20.30
2018-05-06T08:17:08.341Z,20.40
2018-05-06T08:19:35.996Z,20.70
2018-05-06T08:22:03.636Z,21.40
2018-05-06T08:24:31.995Z,24.10
2018-05-06T08:26:59.566Z,24.00
2018-05-06T08:29:27.929Z,27.20
2018-05-06T08:31:55.562Z,27.10
2018-05-06T08:34:23.208Z,29.10
2018-05-06T08:36:50.841Z,30.30
2018-05-06T08:39:18.412Z,31.30
2018-05-06T08:41:46.056Z,31.40
2018-05-06T08:44:14.450Z,30.90
2018-05-06T08:46:42.013Z,30.90
2018-05-06T08:49:09.598Z,31.70
2018-05-06T08:51:37.198Z,32.30
2018-05-06T08:54:04.793Z,33.30
2018-05-06T08:56:32.440Z,33.40
2018-05-06T08:59:00.013Z,32.90
2018-05-06T09:01:27.615Z,32.90
2018-05-06T09:03:55.218Z,33.10
2018-05-06T09:06:23.561Z,34.00
2018-05-06T09:08:51.181Z,34.00
2018-05-06T09:11:18.718Z,33.60
2018-05-06T09:13:46.325Z,33.60
2018-05-06T09:16:13.943Z,34.00
2018-05-06T09:24:31.996Z,33.40
2018-05-06T09:27:00.426Z,33.20
2018-05-06T09:29:28.030Z,33.20
2018-05-06T09:31:55.593Z,34.00
2018-05-06T09:34:24.011Z,33.50
2018-05-06T09:36:52.333Z,33.70
2018-05-06T09:39:19.912Z,33.70
2018-05-06T09:41:48.315Z,35.10
2018-05-06T09:44:15.924Z,35.00
2018-05-06T09:46:43.504Z,34.30
2018-05-06T09:49:11.108Z,34.00
2018-05-06T09:51:38.705Z,33.40
2018-05-06T09:54:06.313Z,33.40
2018-05-06T09:56:33.861Z,33.20
2018-05-06T09:59:02.274Z,33.10
2018-05-06T10:01:29.863Z,33.00
2018-05-06T10:03:57.466Z,32.80
2018-05-06T10:06:25.061Z,32.30
2018-05-06T10:08:52.671Z,32.50
2018-05-06T10:11:21.053Z,32.90
2018-05-06T10:13:49.438Z,33.50
2018-05-06T10:16:17.794Z,33.40
2018-05-06T10:18:45.451Z,33.40
2018-05-06T10:21:13.021Z,32.80
2018-05-06T10:23:40.601Z,33.20
2018-05-06T10:26:08.286Z,32.60
2018-05-06T10:28:36.589Z,32.80
2018-05-06T10:31:04.192Z,32.80
2018-05-06T10:33:32.583Z,32.40
2018-05-06T10:36:00.162Z,32.40
2018-05-06T10:38:27.794Z,32.60
2018-05-06T10:40:55.315Z,33.50
2018-05-06T10:43:22.878Z,33.80
2018-05-06T10:45:50.514Z,34.20
2018-05-06T10:48:18.131Z,33.30
2018-05-06T10:50:46.529Z,32.90
2018-05-06T10:53:15.241Z,32.90
2018-05-06T10:55:42.830Z,33.10
2018-05-06T10:58:10.415Z,33.60
2018-05-06T11:00:38.767Z,33.10
2018-05-06T11:03:06.391Z,33.00
2018-05-06T11:05:33.987Z,33.80
2018-05-06T11:08:01.552Z,33.80
2018-05-06T11:10:29.199Z,34.50
2018-05-06T11:12:56.744Z,34.40
2018-05-06T11:15:24.374Z,34.00
2018-05-06T11:17:51.981Z,33.50
2018-05-06T11:20:19.538Z,33.10
2018-05-06T11:22:47.129Z,33.40
2018-05-06T11:25:15.474Z,33.80
2018-05-06T11:27:43.070Z,33.80
2018-05-06T11:30:10.667Z,33.60
2018-05-06T11:32:38.247Z,33.00
2018-05-06T11:35:05.830Z,32.60
2018-05-06T11:37:33.408Z,32.30
2018-05-06T11:40:01.751Z,32.30
2018-05-06T11:42:29.334Z,32.30
2018-05-06T11:44:56.913Z,32.20
2018-05-06T11:47:25.251Z,31.70
2018-05-06T11:49:52.790Z,31.70
2018-05-06T11:52:21.161Z,31.50
2018-05-06T11:54:48.790Z,31.50
2018-05-06T11:57:17.163Z,31.90
2018-05-06T11:59:45.486Z,32.10
2018-05-06T12:02:13.078Z,32.10
2018-05-06T12:04:40.696Z,32.60
2018-05-06T12:07:09.084Z,32.90
2018-05-06T12:09:36.744Z,32.90
2018-05-06T12:12:04.351Z,32.80
2018-05-06T12:14:31.959Z,32.40
2018-05-06T12:16:59.564Z,32.40
2018-05-06T12:19:27.132Z,32.50
2018-05-06T12:21:55.510Z,31.70
2018-05-06T12:24:23.937Z,31.50
2018-05-06T12:26:51.533Z,31.40
2018-05-06T12:29:19.115Z,31.50
2018-05-06T12:31:47.443Z,31.70
2018-05-06T12:34:15.034Z,31.60
2018-05-06T12:36:42.652Z,31.70
2018-05-06T12:39:10.195Z,31.90
2018-05-06T12:41:37.768Z,31.80
2018-05-06T12:44:05.323Z,31.40
2018-05-06T12:46:32.898Z,31.50
2018-05-06T12:49:00.487Z,31.40
2018-05-06T12:51:28.058Z,32.10
2018-05-06T12:53:55.603Z,32.30
2018-05-06T12:56:23.252Z,32.00
2018-05-06T12:58:50.822Z,31.80
2018-05-06T13:01:18.425Z,31.80
2018-05-06T13:03:46.050Z,31.70
2018-05-06T13:06:13.593Z,31.80
2018-05-06T13:08:41.260Z,31.90
2018-05-06T13:11:09.541Z,31.50
2018-05-06T13:13:37.140Z,31.40
2018-05-06T13:16:04.709Z,31.30
2018-05-06T13:18:32.302Z,31.50
2018-05-06T13:20:59.858Z,31.80
2018-05-06T13:23:27.412Z,31.60
2018-05-06T13:25:55.037Z,31.80
2018-05-06T13:28:23.382Z,31.90
2018-05-06T13:30:51.017Z,31.80
2018-05-06T13:33:18.586Z,31.80
2018-05-06T13:36:00.770Z,31.60
2018-05-06T13:38:28.361Z,31.60
2018-05-06T13:49:49.288Z,31.00
2018-05-06T13:52:23.130Z,30.90
2018-05-06T13:54:50.694Z,31.60
2018-05-06T13:57:18.283Z,31.40
2018-05-06T13:59:46.669Z,30.50
2018-05-06T14:02:15.064Z,30.60
2018-05-06T14:04:42.670Z,30.60
2018-05-06T14:07:10.280Z,30.80
2018-05-06T14:09:45.686Z,30.90
2018-05-06T14:12:13.240Z,30.50
2018-05-06T14:14:40.804Z,30.60
2018-05-06T14:17:08.414Z,30.60
2018-05-06T14:19:50.532Z,30.30
2018-05-06T14:22:18.135Z,30.20
2018-05-06T14:24:46.491Z,30.20
2018-05-06T14:27:14.079Z,30.10
2018-05-06T14:29:42.429Z,29.70
2018-05-06T14:35:20.943Z,29.60
2018-05-06T14:37:48.497Z,29.60
2018-05-06T14:40:16.105Z,29.60
2018-05-06T14:42:43.738Z,29.60
2018-05-06T14:45:11.342Z,29.50
2018-05-06T14:47:51.464Z,29.30
2018-05-06T14:50:19.101Z,29.30
2018-05-06T14:52:50.637Z,29.00
2018-05-06T14:55:29.345Z,28.90
2018-05-06T14:57:56.924Z,28.70
2018-05-06T15:00:32.122Z,28.80
2018-05-06T15:03:02.421Z,28.40
2018-05-06T15:05:29.988Z,28.40
2018-05-06T15:07:57.577Z,28.40
2018-05-06T15:10:25.334Z,28.50
2018-05-06T15:12:52.812Z,28.70
2018-05-06T15:15:25.804Z,28.40
2018-05-06T15:17:53.416Z,28.00
2018-05-06T15:20:21.055Z,28.00
2018-05-06T15:22:49.067Z,28.10
2018-05-06T15:25:24.853Z,27.80
2018-05-06T15:27:52.426Z,27.80
2018-05-06T15:30:20.034Z,27.70
2018-05-06T15:32:48.382Z,28.00
2018-05-06T15:35:16.013Z,27.90
2018-05-06T15:37:43.626Z,28.00
2018-05-06T15:40:12.000Z,27.90
2018-05-06T15:42:39.588Z,27.80
2018-05-06T15:45:07.213Z,27.90
2018-05-06T15:47:34.805Z,27.70
2018-05-06T15:50:02.387Z,27.70
2018-05-06T15:52:29.992Z,27.50
2018-05-06T15:54:57.604Z,27.80
2018-05-06T15:57:25.173Z,27.70
2018-05-06T15:59:52.752Z,28.00
2018-05-06T16:02:50.907Z,27.90
2018-05-06T16:05:18.454Z,27.60
2018-05-06T16:07:46.072Z,27.40
2018-05-06T16:10:13.649Z,27.40
2018-05-06T16:12:42.076Z,27.60
2018-05-06T16:15:09.683Z,27.50
2018-05-06T16:17:38.145Z,27.50
2018-05-06T16:20:05.718Z,27.50
2018-05-06T16:22:34.143Z,27.40
2018-05-06T16:25:01.791Z,27.40
2018-05-06T16:27:29.414Z,27.30
2018-05-06T16:29:57.081Z,27.30
2018-05-06T16:32:24.680Z,27.00
2018-05-06T16:37:49.236Z,26.80
2018-05-06T16:40:16.842Z,26.80
2018-05-06T16:42:44.403Z,26.90
2018-05-06T16:45:12.024Z,26.80
2018-05-06T16:47:39.631Z,26.40
2018-05-06T16:50:07.191Z,26.00
2018-05-06T16:52:34.776Z,25.40
2018-05-06T16:55:02.358Z,24.80
2018-05-06T16:57:29.954Z,24.30
2018-05-06T16:59:57.539Z,24.00
2018-05-06T17:02:25.190Z,23.90
2018-05-06T17:04:52.752Z,23.80
2018-05-06T17:07:20.383Z,23.60
2018-05-06T17:15:51.330Z,23.30
2018-05-06T17:18:18.954Z,23.30
2018-05-06T17:20:46.500Z,23.10
2018-05-06T17:23:14.092Z,22.90
2018-05-06T17:25:44.962Z,22.70
2018-05-06T17:28:16.808Z,22.60
2018-05-06T17:30:51.387Z,22.40
2018-05-06T17:33:29.398Z,22.30
2018-05-06T17:36:09.850Z,22.20
2018-05-06T17:38:42.262Z,22.10
2018-05-06T17:41:10.862Z,21.90
2018-05-06T17:43:38.485Z,21.80
2018-05-06T17:46:09.902Z,21.70
2018-05-06T17:48:38.363Z,21.60
2018-05-06T17:54:02.175Z,21.40
2018-05-06T17:56:30.504Z,21.30
2018-05-06T18:08:00.344Z,21.00
2018-05-06T18:10:27.939Z,20.90
2018-05-06T18:12:55.522Z,20.70
2018-05-06T18:15:23.110Z,20.60
2018-05-06T18:17:50.698Z,20.50
2018-05-06T18:20:18.369Z,20.40
2018-05-06T18:22:46.048Z,20.30
2018-05-06T18:25:13.620Z,20.20
2018-05-06T18:27:41.208Z,20.10
2018-05-06T18:30:09.952Z,19.90
2018-05-06T18:32:37.551Z,19.90
2018-05-06T18:35:05.904Z,19.70
2018-05-06T18:40:35.478Z,19.40
2018-05-06T18:43:03.066Z,19.40
2018-05-06T18:45:30.661Z,19.30
2018-05-06T18:47:58.258Z,19.20
2018-05-06T18:50:25.877Z,19.10
2018-05-06T18:52:53.430Z,18.90
2018-05-06T18:55:21.034Z,18.60
2018-05-06T18:58:10.107Z,18.20
2018-05-06T19:00:37.740Z,17.80
2018-05-06T19:03:06.202Z,17.10
2018-05-06T19:05:33.820Z,17.10
2018-05-06T19:08:01.475Z,16.90
2018-05-06T19:10:29.070Z,16.60
2018-05-06T19:12:56.666Z,16.50
2018-05-06T19:15:25.049Z,16.20
2018-05-06T19:17:53.370Z,16.10
2018-05-06T19:20:34.949Z,16.10
2018-05-06T19:23:02.591Z,16.00
2018-05-06T19:25:30.221Z,15.80
2018-05-06T19:27:58.527Z,15.50
2018-05-06T19:30:26.115Z,15.50
2018-05-06T19:32:53.732Z,15.40
2018-05-06T19:35:21.319Z,15.40
2018-05-06T19:37:48.977Z,15.30
2018-05-06T19:40:17.298Z,15.10
2018-05-06T19:42:44.888Z,15.00
2018-05-06T19:45:13.222Z,15.00
2018-05-06T19:56:26.395Z,14.70
2018-05-06T20:02:00.235Z,14.70
2018-05-06T20:04:27.878Z,14.70
2018-05-06T20:06:55.482Z,14.60
2018-05-06T20:09:23.880Z,14.60
2018-05-06T20:11:51.453Z,14.60
2018-05-06T20:14:19.268Z,14.60
2018-05-06T20:16:46.863Z,14.60
2018-05-06T20:19:14.488Z,14.50
2018-05-06T20:21:42.160Z,14.40
2018-05-06T20:24:09.687Z,14.40
2018-05-06T20:26:37.309Z,14.40
2018-05-06T20:29:04.899Z,14.50
2018-05-06T20:31:32.515Z,14.50
2018-05-06T20:34:00.903Z,14.50
2018-05-06T20:36:28.509Z,14.50
2018-05-06T20:38:56.074Z,14.50
2018-05-06T20:41:23.695Z,14.40
2018-05-06T20:43:51.318Z,14.30
2018-05-06T20:46:18.938Z,14.30
2018-05-06T20:48:46.572Z,14.30
2018-05-06T20:51:14.201Z,14.20
2018-05-06T20:53:41.789Z,14.10
2018-05-06T20:56:09.382Z,14.20
2018-05-06T20:58:37.002Z,14.10
2018-05-06T21:01:05.333Z,14.00
2018-05-06T21:03:32.930Z,14.00
2018-05-06T21:06:01.328Z,13.80
2018-05-06T21:08:28.973Z,13.90
2018-05-06T21:10:57.333Z,13.70
2018-05-06T21:13:24.938Z,13.70
2018-05-06T21:15:52.585Z,13.80
2018-05-06T21:18:20.176Z,13.90
2018-05-06T21:20:47.792Z,13.90
2018-05-06T21:23:16.130Z,14.00
2018-05-06T21:25:43.721Z,14.00
2018-05-06T21:28:11.398Z,14.00
2018-05-06T21:30:39.036Z,14.10
2018-05-06T21:33:06.632Z,14.10
2018-05-06T21:35:34.232Z,14.10
2018-05-06T21:38:01.785Z,14.10
2018-05-06T21:40:29.395Z,13.90
2018-05-06T21:42:57.793Z,13.80
2018-05-06T21:45:25.400Z,13.80
2018-05-06T21:47:53.044Z,13.80
2018-05-06T21:50:20.728Z,13.80
2018-05-06T21:52:48.260Z,13.90
2018-05-06T21:55:15.881Z,14.10
2018-05-06T21:57:44.227Z,14.30
2018-05-06T22:00:11.805Z,14.30
2018-05-06T22:02:39.363Z,14.30
2018-05-06T22:05:07.700Z,14.20
2018-05-06T22:07:35.592Z,14.20
2018-05-06T22:10:03.195Z,14.20
2018-05-06T22:12:30.846Z,14.20
2018-05-06T22:14:59.195Z,13.90
2018-05-06T22:17:26.801Z,13.80
2018-05-06T22:19:54.433Z,13.80
2018-05-06T22:22:22.835Z,13.70
2018-05-06T22:24:50.417Z,13.70
2018-05-06T22:27:18.024Z,13.60
2018-05-06T22:29:45.633Z,13.60
2018-05-06T22:32:13.224Z,13.50
2018-05-06T22:34:40.806Z,13.40
2018-05-06T22:37:08.425Z,13.30
2018-05-06T22:39:36.037Z,13.20
2018-05-06T22:42:04.435Z,13.10
2018-05-06T22:44:32.030Z,13.10
2018-05-06T22:47:06.661Z,13.10
2018-05-06T22:49:34.294Z,13.20
2018-05-06T22:52:01.853Z,13.10
2018-05-06T22:54:29.417Z,13.00
2018-05-06T22:56:57.013Z,12.80
2018-05-06T22:59:24.654Z,12.70
2018-05-06T23:01:52.235Z,12.70
2018-05-06T23:04:19.940Z,12.60
2018-05-06T23:06:47.458Z,12.50
2018-05-06T23:09:15.103Z,12.40
2018-05-06T23:11:42.732Z,12.40
2018-05-06T23:14:10.329Z,12.40
2018-05-06T23:16:37.977Z,12.40
2018-05-06T23:19:05.601Z,12.40
2018-05-06T23:21:33.967Z,12.40
2018-05-06T23:24:02.307Z,12.40
2018-05-06T23:26:29.961Z,12.40
2018-05-06T23:28:57.486Z,12.40
2018-05-06T23:31:25.111Z,12.40
2018-05-06T23:33:53.497Z,12.50
2018-05-06T23:36:21.149Z,12.50
2018-05-06T23:38:48.792Z,12.40
2018-05-06T23:41:16.378Z,12.40
2018-05-06T23:43:44.816Z,12.30
2018-05-06T23:46:12.370Z,12.30
2018-05-06T23:48:39.973Z,12.20
2018-05-06T23:51:08.345Z,12.20
2018-05-06T23:53:35.945Z,12.20
2018-05-06T23:56:03.509Z,12.20
2018-05-06T23:58:31.127Z,12.20
